Time;durP1;ratioP1;P1;durP2;ratioP2;P2;SDS_P1;SDS_P2;PMS_P1;PMS_P2;Temp;Humidity;BMP_temperature;BMP_pressure;BME280_temperature;BME280_humidity;BME280_pressure;Samples;Min_cycle;Max_cycle;Signal;HPM_P1;HPM_P2
2022/05/23 00:02:25;;;;;;;11.63;5.15;;;21.90;99.90;;;;;;5093959;28;20040;-68
2022/05/23 00:04:50;;;;;;;19.58;5.25;;;22.00;99.90;;;;;;5094040;28;20040;-68
2022/05/23 00:07:27;;;;;;;18.98;5.32;;;22.00;99.90;;;;;;5093713;28;20491;-68
2022/05/23 00:09:53;;;;;;;17.38;4.90;;;22.10;99.90;;;;;;5094004;28;20043;-68
2022/05/23 00:12:19;;;;;;;16.63;5.05;;;22.20;99.90;;;;;;5094116;28;20195;-68
2022/05/23 00:14:46;;;;;;;19.33;5.63;;;22.30;99.90;;;;;;5093980;28;20468;-68
2022/05/23 00:17:12;;;;;;;12.88;5.65;;;21.90;99.90;;;;;;5093604;28;20415;-68
2022/05/23 00:19:38;;;;;;;15.35;5.50;;;21.70;99.90;;;;;;5092469;28;20056;-68
2022/05/23 00:22:05;;;;;;;18.48;5.63;;;21.60;99.90;;;;;;5094081;28;20701;-68
2022/05/23 00:24:31;;;;;;;14.65;5.05;;;21.70;99.90;;;;;;5093917;28;20479;-68
2022/05/23 00:26:57;;;;;;;14.15;5.47;;;21.70;99.90;;;;;;5093854;28;20123;-68
2022/05/23 00:29:23;;;;;;;20.83;5.60;;;21.80;99.90;;;;;;5093768;28;20131;-68
2022/05/23 00:37:20;;;;;;;21.40;5.82;;;21.70;99.90;;;;;;5093753;28;20074;-68
2022/05/23 00:39:46;;;;;;;19.90;6.18;;;21.80;99.90;;;;;;5093720;28;20082;-69
2022/05/23 00:45:00;;;;;;;27.05;6.88;;;22.00;99.90;;;;;;5093703;28;20100;-69
2022/05/23 00:47:27;;;;;;;13.18;4.47;;;22.50;99.30;;;;;;5093407;28;20488;-68
2022/05/23 00:49:53;;;;;;;24.25;6.07;;;22.50;99.50;;;;;;5093645;28;20048;-68
2022/05/23 00:52:34;;;;;;;21.42;4.95;;;22.40;99.90;;;;;;5085453;28;20044;-68
2022/05/23 00:55:05;;;;;;;20.90;5.13;;;22.20;99.90;;;;;;5081654;28;20039;-68
2022/05/23 00:57:38;;;;;;;21.40;5.68;;;22.20;99.40;;;;;;5093494;28;20036;-68
2022/05/23 01:00:07;;;;;;;29.63;5.38;;;22.40;97.70;;;;;;5093341;28;20135;-68
2022/05/23 01:02:35;;;;;;;22.77;5.38;;;22.50;97.40;;;;;;5093296;28;20093;-68
2022/05/23 01:05:02;;;;;;;18.10;6.03;;;22.40;97.40;;;;;;5093427;28;20048;-68
2022/05/23 01:07:28;;;;;;;22.33;4.95;;;22.60;96.80;;;;;;5093686;28;20036;-68
2022/05/23 01:09:54;;;;;;;22.45;4.72;;;22.50;97.00;;;;;;5093577;28;20036;-68
2022/05/23 01:12:21;;;;;;;34.05;6.30;;;22.40;97.30;;;;;;5093423;28;20032;-68
2022/05/23 01:14:56;;;;;;;24.38;5.80;;;22.40;97.00;;;;;;5093514;28;20126;-68
2022/05/23 01:17:29;;;;;;;28.38;6.13;;;22.30;97.50;;;;;;5093474;28;20043;-68
2022/05/23 01:19:55;;;;;;;17.38;5.05;;;22.50;96.10;;;;;;5095645;28;20059;-68
2022/05/23 01:22:44;;;;;;;24.80;6.10;;;22.50;96.70;;;;;;5096977;28;20043;-68
2022/05/23 01:25:18;;;;;;;30.60;6.63;;;22.60;95.90;;;;;;5097032;28;20127;-68
2022/05/23 01:27:46;;;;;;;27.65;5.53;;;22.60;95.80;;;;;;5097047;28;20032;-68
2022/05/23 01:30:14;;;;;;;24.40;6.03;;;22.60;96.00;;;;;;5097016;28;20040;-68
2022/05/23 01:32:40;;;;;;;25.42;5.93;;;22.60;96.20;;;;;;5097036;28;20028;-68
2022/05/23 01:35:07;;;;;;;29.10;6.22;;;22.50;96.50;;;;;;5096794;28;20042;-68
2022/05/23 01:37:33;;;;;;;24.52;5.75;;;22.50;96.80;;;;;;5096879;28;20051;-68
2022/05/23 01:39:59;;;;;;;19.65;5.30;;;22.40;97.00;;;;;;5096820;28;20044;-69
2022/05/23 01:42:24;;;;;;;21.35;5.00;;;22.20;97.80;;;;;;5096837;28;20086;-68
2022/05/23 01:44:50;;;;;;;22.40;5.18;;;22.20;98.10;;;;;;5096620;28;20046;-68
2022/05/23 01:47:19;;;;;;;20.30;5.00;;;22.40;98.10;;;;;;5094781;28;20055;-68
2022/05/23 01:49:45;;;;;;;21.65;5.28;;;22.30;98.50;;;;;;5075961;28;20586;-68
2022/05/23 01:52:11;;;;;;;18.70;5.55;;;22.40;98.60;;;;;;5076030;28;20060;-68
2022/05/23 01:54:37;;;;;;;24.52;5.43;;;22.40;98.70;;;;;;5073643;28;20071;-68
2022/05/23 01:57:05;;;;;;;20.17;4.95;;;22.30;98.70;;;;;;5054910;28;20087;-68
2022/05/23 02:02:16;;;;;;;19.27;5.43;;;21.90;99.90;;;;;;5054820;28;20036;-68
2022/05/23 02:04:42;;;;;;;16.35;4.88;;;21.60;99.90;;;;;;5090702;28;20076;-68
2022/05/23 02:07:09;;;;;;;22.17;5.78;;;21.80;98.90;;;;;;5086454;28;20036;-68
2022/05/23 02:09:36;;;;;;;16.83;5.07;;;21.90;99.00;;;;;;5078800;28;20040;-68
2022/05/23 02:12:02;;;;;;;25.50;5.07;;;21.90;99.40;;;;;;5096340;28;20032;-68
2022/05/23 02:14:28;;;;;;;21.27;5.38;;;21.90;99.80;;;;;;5096327;28;20515;-69
2022/05/23 02:16:54;;;;;;;24.13;5.50;;;21.80;99.90;;;;;;5096184;28;20040;-68
2022/05/23 02:19:20;;;;;;;22.02;5.53;;;21.60;99.90;;;;;;5095949;28;20434;-68
2022/05/23 02:21:46;;;;;;;23.52;4.82;;;21.50;99.90;;;;;;5095847;28;20035;-68
2022/05/23 02:24:12;;;;;;;32.88;5.68;;;21.40;99.90;;;;;;5095556;28;20150;-68
2022/05/23 02:26:38;;;;;;;19.35;6.25;;;20.90;99.90;;;;;;5095793;28;20131;-68
2022/05/23 02:29:06;;;;;;;21.88;5.30;;;20.70;99.90;;;;;;5095802;28;20418;-68
2022/05/23 02:31:32;;;;;;;22.35;6.35;;;20.80;99.90;;;;;;5095232;28;20039;-68
2022/05/23 02:33:58;;;;;;;20.52;5.18;;;21.00;99.90;;;;;;5094443;28;20466;-68
2022/05/23 02:36:23;;;;;;;16.13;5.22;;;20.90;99.90;;;;;;5095525;28;20449;-68
2022/05/23 02:38:49;;;;;;;18.65;6.22;;;20.90;99.90;;;;;;5095275;28;20071;-68
2022/05/23 02:41:15;;;;;;;18.58;5.68;;;20.90;99.90;;;;;;5095460;28;20132;-68
2022/05/23 02:43:42;;;;;;;21.42;5.65;;;21.00;99.90;;;;;;5095351;28;20044;-68
2022/05/23 02:46:08;;;;;;;25.48;5.80;;;21.00;99.90;;;;;;5095214;28;20032;-68
2022/05/23 02:48:34;;;;;;;25.20;6.60;;;21.00;99.90;;;;;;5095310;28;20387;-68
2022/05/23 02:51:00;;;;;;;13.65;5.15;;;20.90;99.90;;;;;;5095143;28;20036;-68
2022/05/23 02:53:26;;;;;;;19.48;6.28;;;20.80;99.90;;;;;;5095214;28;20112;-68
2022/05/23 02:55:52;;;;;;;15.18;5.05;;;20.90;99.90;;;;;;5095258;28;20127;-68
2022/05/23 02:58:18;;;;;;;18.30;6.10;;;21.00;99.90;;;;;;5095137;28;20074;-68
2022/05/23 03:00:44;;;;;;;17.83;6.57;;;21.10;99.90;;;;;;5089711;28;20052;-68
2022/05/23 03:03:10;;;;;;;22.25;6.13;;;21.20;99.90;;;;;;5082493;28;20116;-68
2022/05/23 03:05:41;;;;;;;16.13;5.53;;;21.20;99.90;;;;;;5093301;28;20047;-68
2022/05/23 03:08:09;;;;;;;20.70;5.68;;;20.80;99.90;;;;;;5094949;28;20399;-68
2022/05/23 03:10:35;;;;;;;19.30;5.40;;;20.60;99.90;;;;;;5094851;28;20032;-68
2022/05/23 03:13:01;;;;;;;23.52;6.15;;;20.60;99.90;;;;;;5090819;28;20060;-68
2022/05/23 03:15:28;;;;;;;21.05;5.88;;;20.70;99.90;;;;;;5074432;28;20041;-68
2022/05/23 03:17:55;;;;;;;21.15;6.28;;;21.00;99.90;;;;;;5074580;28;20559;-68
2022/05/23 03:20:21;;;;;;;23.92;6.57;;;20.80;99.90;;;;;;5074498;28;20430;-68
2022/05/23 03:28:16;;;;;;;20.60;6.28;;;20.40;99.90;;;;;;5074610;28;20043;-68
2022/05/23 03:30:42;;;;;;;18.08;5.97;;;20.40;99.90;;;;;;5074395;28;20110;-68
2022/05/23 03:33:08;;;;;;;19.73;5.63;;;20.50;99.90;;;;;;5074047;28;20816;-68
2022/05/23 03:35:34;;;;;;;19.85;6.38;;;20.60;99.90;;;;;;5074046;28;20051;-68
2022/05/23 03:38:01;;;;;;;19.15;6.20;;;20.60;99.90;;;;;;5073877;28;20033;-68
2022/05/23 03:40:28;;;;;;;22.85;6.85;;;20.60;99.90;;;;;;5074038;28;20056;-68
2022/05/23 03:42:55;;;;;;;14.80;6.55;;;20.70;99.90;;;;;;5073115;28;20090;-68
2022/05/23 03:45:21;;;;;;;19.98;6.30;;;20.70;99.90;;;;;;5074184;28;20044;-68
2022/05/23 03:47:50;;;;;;;14.32;5.45;;;20.70;99.90;;;;;;5074078;28;20391;-68
2022/05/23 03:50:16;;;;;;;17.35;6.05;;;20.70;99.90;;;;;;5074172;28;20040;-68
2022/05/23 03:52:42;;;;;;;26.13;6.80;;;20.70;99.90;;;;;;5073531;28;20086;-68
2022/05/23 03:55:08;;;;;;;24.58;6.22;;;20.70;99.90;;;;;;5073859;28;20048;-68
2022/05/23 03:57:34;;;;;;;21.77;6.60;;;20.70;99.90;;;;;;5074197;28;20085;-68
2022/05/23 03:59:59;;;;;;;21.30;6.75;;;20.70;99.90;;;;;;5073883;28;20060;-69
2022/05/23 04:02:25;;;;;;;21.63;5.97;;;20.70;99.90;;;;;;5074037;28;20043;-68
2022/05/23 04:04:51;;;;;;;23.00;6.65;;;20.60;99.90;;;;;;5073977;28;20052;-69
2022/05/23 04:07:17;;;;;;;15.50;6.13;;;20.50;99.90;;;;;;5074087;28;20377;-68
2022/05/23 04:09:43;;;;;;;21.60;5.43;;;20.50;99.90;;;;;;5076677;28;20035;-68
2022/05/23 04:12:09;;;;;;;20.35;5.68;;;20.40;99.90;;;;;;5083955;28;20504;-68
2022/05/23 04:14:36;;;;;;;23.58;7.47;;;20.50;99.90;;;;;;5090905;28;20541;-68
2022/05/23 04:17:02;;;;;;;18.02;6.25;;;20.50;99.90;;;;;;5094019;28;20101;-68
2022/05/23 04:19:28;;;;;;;18.77;6.28;;;20.40;99.90;;;;;;5094046;28;20048;-68
2022/05/23 04:21:54;;;;;;;15.75;6.20;;;20.20;99.90;;;;;;5094048;28;20044;-68
2022/05/23 04:24:20;;;;;;;16.33;6.78;;;20.40;99.90;;;;;;5093762;28;20525;-68
2022/05/23 04:26:52;;;;;;;28.30;8.18;;;20.30;99.90;;;;;;5074964;28;20055;-68
2022/05/23 04:29:19;;;;;;;21.25;6.75;;;20.10;99.90;;;;;;5073486;28;20071;-68
2022/05/23 04:31:45;;;;;;;19.80;6.35;;;20.00;99.90;;;;;;5073785;28;20415;-68
2022/05/23 04:36:55;;;;;;;13.57;5.65;;;19.80;99.90;;;;;;5073351;28;20086;-68
2022/05/23 04:39:21;;;;;;;22.30;7.05;;;19.80;99.90;;;;;;5071977;28;20520;-68
2022/05/23 04:41:47;;;;;;;20.25;6.47;;;19.70;99.90;;;;;;5073585;28;20439;-68
2022/05/23 04:44:13;;;;;;;18.90;6.18;;;19.90;99.90;;;;;;5073464;28;20037;-68
2022/05/23 04:49:49;;;;;;;14.85;6.30;;;20.00;99.90;;;;;;5062874;28;20500;-68
2022/05/23 04:52:19;;;;;;;19.48;6.95;;;20.10;99.90;;;;;;5053980;28;20053;-68
2022/05/23 04:54:47;;;;;;;18.02;6.70;;;20.00;99.90;;;;;;5055687;28;20562;-68
2022/05/23 04:57:13;;;;;;;27.60;7.22;;;20.00;99.90;;;;;;5058572;28;20128;-68
2022/05/23 04:59:39;;;;;;;25.30;6.40;;;20.10;99.90;;;;;;5058356;28;20412;-68
2022/05/23 05:02:05;;;;;;;13.50;6.40;;;20.10;99.90;;;;;;5057624;28;20515;-68
2022/05/23 05:04:32;;;;;;;14.57;6.15;;;20.30;99.90;;;;;;5056987;28;20065;-68
2022/05/23 05:06:58;;;;;;;28.67;7.63;;;20.20;99.90;;;;;;5071143;28;20056;-67
2022/05/23 05:09:24;;;;;;;22.48;7.18;;;20.20;99.90;;;;;;5091995;28;20040;-67
2022/05/23 05:11:50;;;;;;;20.05;6.93;;;20.10;99.90;;;;;;5088212;28;20040;-68
2022/05/23 05:14:16;;;;;;;21.60;7.07;;;19.90;99.90;;;;;;5084290;28;20040;-67
2022/05/23 05:16:42;;;;;;;18.15;7.25;;;19.80;99.90;;;;;;5076336;28;20072;-68
2022/05/23 05:19:08;;;;;;;23.48;7.28;;;19.80;99.90;;;;;;5076345;28;20117;-68
2022/05/23 05:21:34;;;;;;;19.23;6.28;;;19.90;99.90;;;;;;5076905;28;20040;-67
2022/05/23 05:24:00;;;;;;;17.58;6.75;;;20.00;99.90;;;;;;5076350;28;20040;-67
2022/05/23 05:26:26;;;;;;;21.80;6.82;;;19.70;99.90;;;;;;5076628;28;20044;-68
2022/05/23 05:28:52;;;;;;;23.45;8.07;;;19.20;99.90;;;;;;5061754;28;20045;-67
2022/05/23 05:31:25;;;;;;;35.08;11.57;;;19.30;99.90;;;;;;5066039;28;20059;-67
2022/05/23 05:33:56;;;;;;;23.02;7.38;;;19.70;99.90;;;;;;5071827;28;20504;-68
2022/05/23 05:36:30;;;;;;;18.75;6.97;;;19.50;99.90;;;;;;5055841;28;20044;-68
2022/05/23 05:39:00;;;;;;;25.83;7.18;;;19.40;99.90;;;;;;5055822;28;20041;-67
2022/05/23 05:41:31;;;;;;;14.93;6.43;;;19.40;99.90;;;;;;5071288;28;20051;-68
2022/05/23 05:44:05;;;;;;;20.95;6.43;;;19.50;99.90;;;;;;5087322;28;20068;-67
2022/05/23 05:46:41;;;;;;;22.10;7.00;;;19.60;99.90;;;;;;5075229;28;20049;-67
2022/05/23 05:49:19;;;;;;;19.73;7.07;;;19.80;99.90;;;;;;5074877;28;20037;-67
2022/05/23 05:51:48;;;;;;;20.60;7.57;;;19.80;99.90;;;;;;5073828;28;20135;-67
2022/05/23 05:54:22;;;;;;;19.50;7.03;;;19.70;99.90;;;;;;5093937;28;20140;-67
2022/05/23 05:56:49;;;;;;;24.38;6.63;;;19.80;99.90;;;;;;5093031;28;20441;-67
2022/05/23 05:59:17;;;;;;;19.33;6.80;;;20.00;99.90;;;;;;5086663;28;20594;-67
2022/05/23 06:01:43;;;;;;;25.45;6.53;;;20.20;99.90;;;;;;5071569;28;20469;-67
2022/05/23 06:04:09;;;;;;;22.25;6.40;;;20.30;99.90;;;;;;5078894;28;20526;-66
2022/05/23 06:12:04;;;;;;;22.02;5.93;;;20.40;99.90;;;;;;5073653;28;20031;-67
2022/05/23 06:14:30;;;;;;;18.95;6.10;;;20.50;99.90;;;;;;5084859;28;20043;-67
2022/05/23 06:16:56;;;;;;;20.02;5.80;;;20.50;99.90;;;;;;5088272;28;20103;-67
2022/05/23 06:19:22;;;;;;;30.27;5.97;;;20.50;99.90;;;;;;5073211;28;20056;-67
2022/05/23 06:21:48;;;;;;;13.32;4.63;;;20.80;99.90;;;;;;5071322;28;20040;-67
2022/05/23 06:24:14;;;;;;;19.95;6.75;;;21.30;99.90;;;;;;5071711;28;20048;-67
2022/05/23 06:26:40;;;;;;;17.02;5.35;;;21.90;99.90;;;;;;5070595;28;20098;-67
2022/05/23 06:29:06;;;;;;;19.52;6.00;;;22.00;99.90;;;;;;5071300;28;20044;-68
2022/05/23 06:31:33;;;;;;;17.73;5.40;;;22.20;99.90;;;;;;5071643;28;20048;-67
2022/05/23 06:33:58;;;;;;;12.13;5.20;;;22.70;99.90;;;;;;5073478;28;20032;-67
2022/05/23 06:36:24;;;;;;;19.75;6.63;;;23.00;99.90;;;;;;5073540;28;20377;-67
2022/05/23 06:38:50;;;;;;;22.30;6.35;;;22.80;99.90;;;;;;5073311;28;20047;-68
2022/05/23 06:41:16;;;;;;;12.85;5.10;;;23.20;99.90;;;;;;5073449;28;20094;-68
2022/05/23 06:43:43;;;;;;;14.73;5.85;;;23.50;99.90;;;;;;5072823;28;20079;-68
2022/05/23 06:46:11;;;;;;;20.88;4.97;;;23.60;99.90;;;;;;5073703;28;20100;-68
2022/05/23 06:48:37;;;;;;;25.67;5.57;;;24.10;99.90;;;;;;5071498;28;20044;-68
2022/05/23 06:51:04;;;;;;;19.95;4.32;;;24.00;99.90;;;;;;5070104;28;20105;-68
2022/05/23 06:53:30;;;;;;;16.58;3.90;;;23.90;99.90;;;;;;5071346;28;20102;-69
2022/05/23 06:55:57;;;;;;;11.20;4.13;;;24.00;99.90;;;;;;5071242;28;20119;-68
2022/05/23 06:58:23;;;;;;;16.63;4.28;;;24.30;99.90;;;;;;5071236;28;20106;-69
2022/05/23 07:00:49;;;;;;;15.68;4.65;;;24.00;99.90;;;;;;5072557;28;20364;-68
2022/05/23 07:03:15;;;;;;;15.30;4.47;;;23.80;99.90;;;;;;5071622;28;20442;-68
2022/05/23 07:13:55;;;;;;;20.27;6.45;;;23.60;99.90;;;;;;5072346;28;20091;-68
2022/05/23 07:16:24;;;;;;;14.13;6.05;;;23.90;99.90;;;;;;5073004;28;20040;-69
2022/05/23 07:18:51;;;;;;;19.08;7.00;;;23.90;99.90;;;;;;5072318;28;20410;-68
2022/05/23 07:21:17;;;;;;;15.10;6.50;;;23.80;99.90;;;;;;5072825;28;20040;-68
2022/05/23 07:23:43;;;;;;;14.93;5.93;;;23.80;99.90;;;;;;5072519;28;20123;-68
2022/05/23 07:26:16;;;;;;;16.98;7.03;;;24.00;99.90;;;;;;5073014;28;20064;-68
2022/05/23 07:28:43;;;;;;;18.70;6.85;;;23.90;99.90;;;;;;5073048;28;20033;-68
2022/05/23 07:31:09;;;;;;;15.25;6.68;;;23.80;99.90;;;;;;5072888;28;20119;-68
2022/05/23 07:33:35;;;;;;;18.77;6.82;;;23.80;99.90;;;;;;5072869;28;20423;-68
2022/05/23 07:36:01;;;;;;;20.67;6.95;;;23.70;99.90;;;;;;5072346;28;20044;-68
2022/05/23 07:38:28;;;;;;;21.50;7.25;;;23.40;99.90;;;;;;5072333;28;20492;-69
2022/05/23 07:40:55;;;;;;;19.25;7.65;;;;;;;;;;5079454;28;20073;-68
2022/05/23 07:43:23;;;;;;;15.80;7.05;;;22.90;99.90;;;;;;5072207;28;20470;-68
2022/05/23 07:45:50;;;;;;;19.67;7.47;;;22.60;99.90;;;;;;5072008;28;20127;-68
2022/05/23 07:48:18;;;;;;;17.75;6.93;;;22.40;99.90;;;;;;5072459;28;20048;-68
2022/05/23 07:50:44;;;;;;;18.80;7.30;;;22.10;99.90;;;;;;5071820;28;20472;-68
2022/05/23 08:01:24;;;;;;;20.20;7.72;;;21.90;99.90;;;;;;5094060;28;20456;-68
2022/05/23 08:03:50;;;;;;;17.25;7.63;;;21.70;99.90;;;;;;5093955;28;20638;-69
2022/05/23 08:06:17;;;;;;;24.45;7.25;;;21.80;99.90;;;;;;5094284;28;20051;-68
2022/05/23 08:08:43;;;;;;;31.05;9.15;;;21.70;99.90;;;;;;5094225;28;20072;-68
2022/05/23 08:11:09;;;;;;;16.55;7.00;;;21.80;99.90;;;;;;5091774;28;20437;-68
2022/05/23 08:13:41;;;;;;;20.90;6.60;;;21.80;99.90;;;;;;5092129;28;20043;-68
2022/05/23 08:16:07;;;;;;;14.02;7.20;;;22.00;99.90;;;;;;5091124;28;20483;-68
2022/05/23 08:18:33;;;;;;;14.80;6.90;;;22.10;99.90;;;;;;5092047;28;20047;-68
2022/05/23 08:21:00;;;;;;;17.52;6.68;;;22.10;99.90;;;;;;5094047;28;20411;-68
2022/05/23 08:23:26;;;;;;;18.27;7.07;;;22.00;99.90;;;;;;5093933;28;20036;-68
2022/05/23 08:25:52;;;;;;;19.05;5.90;;;22.00;99.90;;;;;;5092108;28;20044;-68
2022/05/23 08:28:19;;;;;;;17.23;6.53;;;22.00;99.90;;;;;;5092278;28;20127;-68
2022/05/23 08:30:45;;;;;;;12.70;6.20;;;22.10;99.90;;;;;;5095627;28;20522;-68
2022/05/23 08:33:11;;;;;;;17.02;6.13;;;22.20;99.90;;;;;;5082602;28;20068;-68
2022/05/23 08:35:37;;;;;;;15.43;6.45;;;22.40;99.90;;;;;;5076052;28;20090;-69
2022/05/23 08:38:04;;;;;;;10.35;5.25;;;22.50;99.90;;;;;;5075432;28;20044;-68
2022/05/23 08:40:57;;;;;;;12.73;5.90;;;22.70;99.90;;;;;;5075708;28;20365;-68
2022/05/23 08:43:38;;;;;;;17.70;6.45;;;22.80;99.90;;;;;;5077299;28;20063;-69
2022/05/23 08:46:07;;;;;;;14.88;6.70;;;22.80;99.90;;;;;;5077066;28;20134;-68
2022/05/23 08:48:43;;;;;;;17.98;6.35;;;22.90;99.90;;;;;;5075809;28;20047;-68
2022/05/23 08:51:20;;;;;;;30.33;8.30;;;22.90;99.90;;;;;;5075816;28;20043;-68
2022/05/23 08:54:11;;;;;;;14.25;6.50;;;23.00;99.90;;;;;;5075201;28;20507;-69
2022/05/23 08:56:40;;;;;;;18.75;7.38;;;23.10;99.90;;;;;;5075771;28;20055;-69
2022/05/23 08:59:33;;;;;;;16.70;5.95;;;23.30;99.90;;;;;;5075758;28;20051;-69
2022/05/23 09:02:04;;;;;;;16.67;6.00;;;23.30;99.90;;;;;;5064034;28;20036;-69
2022/05/23 09:04:56;;;;;;;18.20;6.07;;;23.40;99.90;;;;;;5074903;28;20032;-68
2022/05/23 09:07:31;;;;;;;21.73;5.35;;;23.30;99.90;;;;;;5078595;28;20051;-68
2022/05/23 09:10:01;;;;;;;21.50;5.65;;;23.20;99.90;;;;;;5074884;28;20383;-69
2022/05/23 09:12:27;;;;;;;18.73;5.40;;;23.30;99.90;;;;;;5076418;28;20071;-68
2022/05/23 09:14:53;;;;;;;13.40;4.78;;;23.30;99.90;;;;;;5076781;28;20059;-69
2022/05/23 09:17:27;;;;;;;15.07;4.65;;;23.40;99.90;;;;;;5082976;28;20048;-67
2022/05/23 09:20:07;;;;;;;14.00;4.30;;;23.30;99.90;;;;;;5076939;28;20076;-68
2022/05/23 09:22:53;;;;;;;20.02;5.35;;;23.30;99.90;;;;;;5089705;28;20059;-68
2022/05/23 09:25:27;;;;;;;15.27;4.85;;;23.30;99.90;;;;;;5126170;27;20039;-67
2022/05/23 09:28:18;;;;;;;15.77;4.50;;;23.20;99.90;;;;;;5090265;28;20041;-68
2022/05/23 09:30:48;;;;;;;12.32;4.57;;;23.10;99.90;;;;;;5074580;28;20515;-68
2022/05/23 09:33:20;;;;;;;12.80;5.32;;;23.30;99.90;;;;;;5074659;28;20047;-68
2022/05/23 09:35:46;;;;;;;14.25;4.95;;;23.30;99.90;;;;;;5076271;28;20496;-68
2022/05/23 09:38:14;;;;;;;15.70;5.60;;;23.40;99.90;;;;;;5074797;28;20054;-68
2022/05/23 09:40:41;;;;;;;11.88;4.45;;;23.40;99.90;;;;;;5073190;28;20155;-68
2022/05/23 09:49:21;;;;;;;21.73;5.40;;;23.50;99.90;;;;;;5075594;28;20039;-69
2022/05/23 09:51:57;;;;;;;19.20;5.63;;;23.50;99.90;;;;;;5074390;28;20055;-68
2022/05/23 09:54:33;;;;;;;8.00;4.22;;;23.50;99.90;;;;;;5074326;28;20051;-68
2022/05/23 09:57:02;;;;;;;11.70;4.38;;;23.60;99.90;;;;;;5073323;28;20048;-68
2022/05/23 09:59:36;;;;;;;13.75;4.95;;;23.60;99.90;;;;;;5073346;28;20048;-68
2022/05/23 10:02:31;;;;;;;16.13;4.35;;;23.60;99.90;;;;;;5073138;28;21136;-68
2022/05/23 10:04:58;;;;;;;12.48;4.88;;;23.60;99.90;;;;;;5073788;28;20064;-68
2022/05/23 10:07:37;;;;;;;12.57;4.60;;;23.70;99.90;;;;;;5075904;28;20041;-68
2022/05/23 10:10:19;;;;;;;13.68;4.85;;;23.70;99.90;;;;;;5074266;28;20076;-68
2022/05/23 10:12:45;;;;;;;12.05;4.45;;;23.70;99.90;;;;;;5076110;28;20074;-68
2022/05/23 10:15:25;;;;;;;12.43;4.35;;;23.70;99.90;;;;;;5084732;28;20090;-68
2022/05/23 10:18:03;;;;;;;9.95;3.90;;;23.80;99.90;;;;;;5095882;28;20036;-68
2022/05/23 10:20:35;;;;;;;15.90;4.43;;;23.70;99.90;;;;;;5095957;28;20407;-68
2022/05/23 10:23:12;;;;;;;14.55;5.22;;;23.70;99.90;;;;;;5090526;28;20032;-68
2022/05/23 10:25:50;;;;;;;15.43;4.78;;;23.60;99.90;;;;;;5081777;28;20076;-67
2022/05/23 10:28:22;;;;;;;15.77;4.45;;;23.40;99.90;;;;;;5080129;28;20075;-68
2022/05/23 10:31:05;;;;;;;11.45;4.57;;;23.40;99.90;;;;;;5087643;28;20127;-67
2022/05/23 10:33:31;;;;;;;13.57;4.55;;;23.50;99.90;;;;;;5095707;28;20078;-67
2022/05/23 10:36:03;;;;;;;17.38;4.63;;;23.50;99.90;;;;;;5095678;28;20043;-69
2022/05/23 10:44:35;;;;;;;24.30;2.33;;;22.70;99.90;;;;;;5095605;28;20043;-67
2022/05/23 10:47:38;;;;;;;32.10;4.22;;;22.40;99.60;;;;;;5095690;28;20530;-68
2022/05/23 10:50:40;;;;;;;19.67;4.18;;;19.40;99.90;;;;;;5086225;28;20076;-68
2022/05/23 10:53:31;;;;;;;13.90;3.58;;;19.00;99.90;;;;;;5095077;28;20043;-67
2022/05/23 10:56:25;;;;;;;12.07;3.10;;;17.90;99.90;;;;;;5095432;28;20050;-67
2022/05/23 10:59:21;;;;;;;14.43;3.08;;;17.50;99.90;;;;;;5095249;28;20119;-67
2022/05/23 11:02:11;;;;;;;15.93;2.40;;;16.80;99.90;;;;;;5068384;28;20515;-69
2022/05/23 11:04:39;;;;;;;8.38;1.95;;;16.60;99.90;;;;;;5067006;28;20038;-68
2022/05/23 11:07:50;;;;;;;3.97;1.60;;;16.70;99.90;;;;;;5070972;28;20032;-69
2022/05/23 11:10:34;;;;;;;2.92;1.48;;;17.10;99.90;;;;;;5078325;28;20377;-67
2022/05/23 11:13:12;;;;;;;5.63;1.63;;;17.80;99.90;;;;;;5056581;28;20066;-68
2022/05/23 11:15:53;;;;;;;5.35;1.50;;;17.90;99.90;;;;;;5065787;28;20109;-68
2022/05/23 11:18:42;;;;;;;11.68;1.80;;;18.00;99.90;;;;;;5071514;28;20048;-67
2022/05/23 11:21:12;;;;;;;13.13;2.00;;;17.90;99.90;;;;;;5072159;28;20079;-67
2022/05/23 11:23:43;;;;;;;;;;;17.90;99.90;;;;;;5070135;28;20120;-67
2022/05/23 11:26:14;;;;;;;;;;;17.80;99.90;;;;;;5072420;28;20375;-67
2022/05/23 11:34:47;;;;;;;4.70;1.60;;;17.80;99.90;;;;;;5071607;28;20047;-67
2022/05/23 11:40:01;;;;;;;10.52;2.40;;;17.60;99.90;;;;;;5070953;28;20048;-68
2022/05/23 11:42:45;;;;;;;9.80;1.67;;;17.40;99.90;;;;;;5072090;28;20044;-67
2022/05/23 11:48:39;;;;;;;6.13;1.70;;;17.20;99.90;;;;;;5071902;28;20442;-68
2022/05/23 11:51:15;;;;;;;2.55;1.25;;;17.40;99.90;;;;;;5071962;28;20119;-68
2022/05/23 11:53:52;;;;;;;5.22;1.27;;;17.50;99.90;;;;;;5071641;28;20040;-68
2022/05/23 11:56:43;;;;;;;4.55;1.27;;;17.30;99.90;;;;;;5071692;28;20504;-67
2022/05/23 11:59:31;;;;;;;2.03;1.00;;;17.20;99.90;;;;;;5072055;28;20041;-67
2022/05/23 12:02:10;;;;;;;3.70;1.40;;;16.90;99.90;;;;;;5071463;28;20044;-67
2022/05/23 12:04:52;;;;;;;5.90;1.83;;;16.70;99.90;;;;;;5071362;28;20037;-67
2022/05/23 12:07:37;;;;;;;4.28;1.55;;;16.60;99.90;;;;;;5071889;28;20546;-68
2022/05/23 12:10:24;;;;;;;6.72;1.85;;;16.60;99.90;;;;;;5071048;28;20036;-67
2022/05/23 12:12:55;;;;;;;4.13;1.30;;;16.50;99.90;;;;;;5071830;28;20380;-67
2022/05/23 12:15:40;;;;;;;6.80;1.67;;;16.60;99.90;;;;;;5071620;28;20044;-68
2022/05/23 12:18:06;;;;;;;7.50;1.63;;;16.80;99.90;;;;;;5071867;28;20037;-67
2022/05/23 12:20:43;;;;;;;5.28;1.50;;;16.90;99.90;;;;;;5071411;28;20139;-68
2022/05/23 12:23:28;;;;;;;5.53;1.52;;;17.00;99.90;;;;;;5071627;28;20059;-67
2022/05/23 12:26:26;;;;;;;6.15;1.38;;;17.20;99.90;;;;;;5070636;28;20135;-67
2022/05/23 12:29:00;;;;;;;10.38;1.85;;;17.30;99.90;;;;;;5055229;28;20498;-68
2022/05/23 12:31:37;;;;;;;9.00;2.20;;;17.10;99.90;;;;;;5071508;28;20049;-67
2022/05/23 12:34:02;;;;;;;8.45;2.28;;;17.10;99.90;;;;;;5071393;28;20128;-66
2022/05/23 12:36:31;;;;;;;6.50;2.25;;;17.00;99.90;;;;;;5071499;28;20463;-66
2022/05/23 12:39:30;;;;;;;12.65;2.40;;;17.00;99.90;;;;;;5070717;28;20103;-67
2022/05/23 12:42:18;;;;;;;4.25;1.42;;;16.90;99.90;;;;;;5071285;28;20396;-66
2022/05/23 12:44:46;;;;;;;6.72;1.83;;;16.80;99.90;;;;;;5071452;28;20036;-67
2022/05/23 12:47:27;;;;;;;9.02;2.70;;;17.00;99.90;;;;;;5070860;28;20041;-67
2022/05/23 12:50:13;;;;;;;;;;;17.20;99.90;;;;;;5071373;28;20047;-67
2022/05/23 12:53:15;;;;;;;3.33;1.52;;;17.40;99.90;;;;;;5071052;28;20372;-68
2022/05/23 12:56:05;;;;;;;13.25;2.83;;;17.30;99.90;;;;;;5070725;28;20040;-66
2022/05/23 12:59:01;;;;;;;10.88;2.60;;;16.90;99.90;;;;;;5072250;28;20045;-66
2022/05/23 13:01:32;;;;;;;10.18;2.13;;;16.60;99.90;;;;;;5071415;28;20045;-67
2022/05/23 13:04:15;;;;;;;7.25;1.85;;;16.60;99.90;;;;;;5071124;28;20044;-67
2022/05/23 13:06:47;;;;;;;4.65;1.48;;;16.80;99.90;;;;;;5070875;28;20040;-67
2022/05/23 13:09:27;;;;;;;8.93;2.80;;;17.10;99.90;;;;;;5071553;28;20064;-67
2022/05/23 13:11:57;;;;;;;9.98;1.90;;;17.00;99.90;;;;;;5072620;28;20041;-67
2022/05/23 13:14:23;;;;;;;5.95;1.60;;;16.70;99.90;;;;;;5072321;28;20538;-67
2022/05/23 13:16:56;;;;;;;12.18;2.60;;;16.50;99.90;;;;;;5074494;28;20098;-67
2022/05/23 13:22:23;;;;;;;9.15;1.67;;;16.60;99.90;;;;;;5075273;28;20036;-68
2022/05/23 13:24:56;;;;;;;11.10;4.90;;;16.70;99.90;;;;;;5074646;28;20051;-67
2022/05/23 13:27:27;;;;;;;6.82;3.47;;;17.00;99.90;;;;;;5075342;28;20037;-67
2022/05/23 13:29:54;;;;;;;;;;;17.40;99.90;;;;;;5075930;28;20103;-68
2022/05/23 13:32:20;;;;;;;7.53;2.17;;;17.80;99.90;;;;;;5074573;28;20335;-67
2022/05/23 13:34:47;;;;;;;6.18;1.80;;;17.80;99.90;;;;;;5075989;28;20123;-67
2022/05/23 13:37:31;;;;;;;5.55;1.55;;;17.90;99.90;;;;;;5076252;28;20078;-67
2022/05/23 13:40:07;;;;;;;4.97;2.20;;;17.90;99.90;;;;;;5074497;28;20051;-67
2022/05/23 13:42:33;;;;;;;4.85;2.17;;;18.10;99.90;;;;;;5075541;28;20503;-66
2022/05/23 13:45:14;;;;;;;3.15;1.73;;;18.20;99.90;;;;;;5076586;28;20055;-66
2022/05/23 13:47:55;;;;;;;9.02;1.70;;;18.20;99.90;;;;;;5076284;28;20036;-66
2022/05/23 13:50:28;;;;;;;7.70;2.20;;;18.20;99.90;;;;;;5074680;28;20032;-66
2022/05/23 13:53:01;;;;;;;13.07;2.15;;;18.30;99.90;;;;;;5074215;28;20040;-66
2022/05/23 13:55:31;;;;;;;9.20;2.15;;;18.40;99.90;;;;;;5074393;28;20036;-66
2022/05/23 13:58:24;;;;;;;5.75;1.98;;;18.80;99.90;;;;;;5074218;28;20044;-65
2022/05/23 14:01:01;;;;;;;23.70;2.38;;;18.90;99.90;;;;;;5074080;28;20098;-66
2022/05/23 14:03:41;;;;;;;6.97;1.77;;;19.10;99.90;;;;;;5074191;28;20040;-66
2022/05/23 14:06:13;;;;;;;6.88;2.15;;;19.20;99.90;;;;;;5075842;28;20119;-66
2022/05/23 14:08:45;;;;;;;10.55;2.47;;;19.20;99.90;;;;;;5076102;28;20045;-66
2022/05/23 14:11:26;;;;;;;5.82;2.17;;;19.20;99.90;;;;;;5074351;28;20090;-66
2022/05/23 14:14:13;;;;;;;11.38;2.60;;;19.50;99.90;;;;;;5074124;28;20045;-66